sensor_id;sensor_type;location;lat;lon;timestamp;temperature;humidity
52209;DHT22;38507;53.132;6.394;2023-09-08T00:00:06;19.20;99.90
52209;DHT22;38507;53.132;6.394;2023-09-08T00:02:31;19.20;99.90
52209;DHT22;38507;53.132;6.394;2023-09-08T00:04:57;19.20;99.90
52209;DHT22;38507;53.132;6.394;2023-09-08T00:07:23;19.20;99.90
52209;DHT22;38507;53.132;6.394;2023-09-08T00:09:48;19.20;99.90
52209;DHT22;38507;53.132;6.394;2023-09-08T00:12:14;19.20;99.90
52209;DHT22;38507;53.132;6.394;2023-09-08T00:14:39;19.10;99.90
52209;DHT22;38507;53.132;6.394;2023-09-08T00:17:05;19.10;99.90
52209;DHT22;38507;53.132;6.394;2023-09-08T00:19:31;19.00;99.90
52209;DHT22;38507;53.132;6.394;2023-09-08T00:21:56;19.00;99.90
52209;DHT22;38507;53.132;6.394;2023-09-08T00:24:22;19.00;99.90
52209;DHT22;38507;53.132;6.394;2023-09-08T00:26:48;19.00;99.90
52209;DHT22;38507;53.132;6.394;2023-09-08T00:29:13;19.00;99.90
52209;DHT22;38507;53.132;6.394;2023-09-08T00:31:39;18.90;99.90
52209;DHT22;38507;53.132;6.394;2023-09-08T00:34:05;18.90;99.90
52209;DHT22;38507;53.132;6.394;2023-09-08T00:36:32;18.90;99.90
52209;DHT22;38507;53.132;6.394;2023-09-08T00:38:57;18.80;99.90
52209;DHT22;38507;53.132;6.394;2023-09-08T00:41:23;18.80;99.90
52209;DHT22;38507;53.132;6.394;2023-09-08T00:43:49;18.80;99.90
52209;DHT22;38507;53.132;6.394;2023-09-08T00:46:16;18.70;99.90
52209;DHT22;38507;53.132;6.394;2023-09-08T00:48:42;18.70;99.90
52209;DHT22;38507;53.132;6.394;2023-09-08T00:51:08;18.60;99.90
52209;DHT22;38507;53.132;6.394;2023-09-08T00:53:35;18.60;99.90
52209;DHT22;38507;53.132;6.394;2023-09-08T00:56:02;18.60;99.90
52209;DHT22;38507;53.132;6.394;2023-09-08T00:58:29;18.60;99.90
52209;DHT22;38507;53.132;6.394;2023-09-08T01:00:54;18.60;99.90
52209;DHT22;38507;53.132;6.394;2023-09-08T01:03:23;18.60;99.90
52209;DHT22;38507;53.132;6.394;2023-09-08T01:05:49;18.50;99.90
52209;DHT22;38507;53.132;6.394;2023-09-08T01:08:15;18.50;99.90
52209;DHT22;38507;53.132;6.394;2023-09-08T01:10:42;18.50;99.90
52209;DHT22;38507;53.132;6.394;2023-09-08T01:13:08;18.40;99.90
52209;DHT22;38507;53.132;6.394;2023-09-08T01:15:33;18.40;99.90
52209;DHT22;38507;53.132;6.394;2023-09-08T01:17:59;18.40;99.90
52209;DHT22;38507;53.132;6.394;2023-09-08T01:20:46;18.30;99.90
52209;DHT22;38507;53.132;6.394;2023-09-08T01:23:35;18.30;99.90
52209;DHT22;38507;53.132;6.394;2023-09-08T01:26:11;18.30;99.90
52209;DHT22;38507;53.132;6.394;2023-09-08T01:28:40;18.20;99.90
52209;DHT22;38507;53.132;6.394;2023-09-08T01:31:06;18.20;99.90
52209;DHT22;38507;53.132;6.394;2023-09-08T01:33:32;18.10;99.90
52209;DHT22;38507;53.132;6.394;2023-09-08T01:35:58;18.20;99.90
52209;DHT22;38507;53.132;6.394;2023-09-08T01:38:24;18.20;99.90
52209;DHT22;38507;53.132;6.394;2023-09-08T01:40:50;18.20;99.90
52209;DHT22;38507;53.132;6.394;2023-09-08T01:43:15;18.10;99.90
52209;DHT22;38507;53.132;6.394;2023-09-08T01:45:41;18.10;99.90
52209;DHT22;38507;53.132;6.394;2023-09-08T01:48:06;18.10;99.90
52209;DHT22;38507;53.132;6.394;2023-09-08T01:50:32;18.00;99.90
52209;DHT22;38507;53.132;6.394;2023-09-08T01:52:58;18.00;99.90
52209;DHT22;38507;53.132;6.394;2023-09-08T01:55:23;18.00;99.90
52209;DHT22;38507;53.132;6.394;2023-09-08T01:57:49;17.90;99.90
52209;DHT22;38507;53.132;6.394;2023-09-08T02:00:15;18.00;99.90
52209;DHT22;38507;53.132;6.394;2023-09-08T02:02:40;17.90;99.90
52209;DHT22;38507;53.132;6.394;2023-09-08T02:05:06;17.90;99.90
52209;DHT22;38507;53.132;6.394;2023-09-08T02:07:33;17.90;99.90
52209;DHT22;38507;53.132;6.394;2023-09-08T02:09:58;17.90;99.90
52209;DHT22;38507;53.132;6.394;2023-09-08T02:12:24;17.80;99.90
52209;DHT22;38507;53.132;6.394;2023-09-08T02:14:49;17.80;99.90
52209;DHT22;38507;53.132;6.394;2023-09-08T02:17:17;17.80;99.90
52209;DHT22;38507;53.132;6.394;2023-09-08T02:19:43;17.80;99.90
52209;DHT22;38507;53.132;6.394;2023-09-08T02:22:09;17.80;99.90
52209;DHT22;38507;53.132;6.394;2023-09-08T02:24:34;17.80;99.90
52209;DHT22;38507;53.132;6.394;2023-09-08T02:27:00;17.80;99.90
52209;DHT22;38507;53.132;6.394;2023-09-08T02:29:25;17.70;99.90
52209;DHT22;38507;53.132;6.394;2023-09-08T02:31:51;17.70;99.90
52209;DHT22;38507;53.132;6.394;2023-09-08T02:34:17;17.80;99.90
52209;DHT22;38507;53.132;6.394;2023-09-08T02:36:43;17.70;99.90
52209;DHT22;38507;53.132;6.394;2023-09-08T02:39:08;17.70;99.90
52209;DHT22;38507;53.132;6.394;2023-09-08T02:41:34;17.60;99.90
52209;DHT22;38507;53.132;6.394;2023-09-08T02:43:59;17.60;99.90
52209;DHT22;38507;53.132;6.394;2023-09-08T02:46:25;17.70;99.90
52209;DHT22;38507;53.132;6.394;2023-09-08T02:48:51;17.60;99.90
52209;DHT22;38507;53.132;6.394;2023-09-08T02:51:18;17.60;99.90
52209;DHT22;38507;53.132;6.394;2023-09-08T02:53:43;17.60;99.90
52209;DHT22;38507;53.132;6.394;2023-09-08T02:56:09;17.60;99.90
52209;DHT22;38507;53.132;6.394;2023-09-08T02:58:35;17.50;99.90
52209;DHT22;38507;53.132;6.394;2023-09-08T03:01:11;17.50;99.90
52209;DHT22;38507;53.132;6.394;2023-09-08T03:03:37;17.50;99.90
52209;DHT22;38507;53.132;6.394;2023-09-08T03:06:03;17.50;99.90
52209;DHT22;38507;53.132;6.394;2023-09-08T03:08:29;17.50;99.90
52209;DHT22;38507;53.132;6.394;2023-09-08T03:10:57;17.50;99.90
52209;DHT22;38507;53.132;6.394;2023-09-08T03:13:23;17.50;99.90
52209;DHT22;38507;53.132;6.394;2023-09-08T03:15:48;17.40;99.90
52209;DHT22;38507;53.132;6.394;2023-09-08T03:18:14;17.40;99.90
52209;DHT22;38507;53.132;6.394;2023-09-08T03:20:39;17.40;99.90
52209;DHT22;38507;53.132;6.394;2023-09-08T03:23:06;17.40;99.90
52209;DHT22;38507;53.132;6.394;2023-09-08T03:25:31;17.40;99.90
52209;DHT22;38507;53.132;6.394;2023-09-08T03:27:57;17.40;99.90
52209;DHT22;38507;53.132;6.394;2023-09-08T03:30:22;17.30;99.90
52209;DHT22;38507;53.132;6.394;2023-09-08T03:32:48;17.30;99.90
52209;DHT22;38507;53.132;6.394;2023-09-08T03:35:14;17.30;99.90
52209;DHT22;38507;53.132;6.394;2023-09-08T03:37:39;17.30;99.90
52209;DHT22;38507;53.132;6.394;2023-09-08T03:40:05;17.30;99.90
52209;DHT22;38507;53.132;6.394;2023-09-08T03:42:32;17.20;99.90
52209;DHT22;38507;53.132;6.394;2023-09-08T03:44:57;17.20;99.90
52209;DHT22;38507;53.132;6.394;2023-09-08T03:47:23;17.20;99.90
52209;DHT22;38507;53.132;6.394;2023-09-08T03:49:49;17.10;99.90
52209;DHT22;38507;53.132;6.394;2023-09-08T03:52:15;17.20;99.90
52209;DHT22;38507;53.132;6.394;2023-09-08T03:54:40;17.10;99.90
52209;DHT22;38507;53.132;6.394;2023-09-08T03:57:06;17.10;99.90
52209;DHT22;38507;53.132;6.394;2023-09-08T03:59:32;17.10;99.90
52209;DHT22;38507;53.132;6.394;2023-09-08T04:01:57;17.10;99.90
52209;DHT22;38507;53.132;6.394;2023-09-08T04:04:23;17.00;99.90
52209;DHT22;38507;53.132;6.394;2023-09-08T04:06:48;17.00;99.90
52209;DHT22;38507;53.132;6.394;2023-09-08T04:09:14;17.00;99.90
52209;DHT22;38507;53.132;6.394;2023-09-08T04:11:40;17.00;99.90
52209;DHT22;38507;53.132;6.394;2023-09-08T04:14:05;17.00;99.90
52209;DHT22;38507;53.132;6.394;2023-09-08T04:16:31;16.90;99.90
52209;DHT22;38507;53.132;6.394;2023-09-08T04:18:56;17.00;99.90
52209;DHT22;38507;53.132;6.394;2023-09-08T04:21:22;16.90;99.90
52209;DHT22;38507;53.132;6.394;2023-09-08T04:23:48;16.90;99.90
52209;DHT22;38507;53.132;6.394;2023-09-08T04:26:13;16.90;99.90
52209;DHT22;38507;53.132;6.394;2023-09-08T04:28:39;16.80;99.90
52209;DHT22;38507;53.132;6.394;2023-09-08T04:31:05;16.80;99.90
52209;DHT22;38507;53.132;6.394;2023-09-08T04:33:30;16.80;99.90
52209;DHT22;38507;53.132;6.394;2023-09-08T04:35:56;16.80;99.90
52209;DHT22;38507;53.132;6.394;2023-09-08T04:38:22;16.80;99.90
52209;DHT22;38507;53.132;6.394;2023-09-08T04:40:47;16.80;99.90
52209;DHT22;38507;53.132;6.394;2023-09-08T04:43:13;16.70;99.90
52209;DHT22;38507;53.132;6.394;2023-09-08T04:45:39;16.70;99.90
52209;DHT22;38507;53.132;6.394;2023-09-08T04:48:05;16.70;99.90
52209;DHT22;38507;53.132;6.394;2023-09-08T04:50:30;16.70;99.90
52209;DHT22;38507;53.132;6.394;2023-09-08T04:52:56;16.70;99.90
52209;DHT22;38507;53.132;6.394;2023-09-08T04:55:22;16.70;99.90
52209;DHT22;38507;53.132;6.394;2023-09-08T04:57:47;16.70;99.90
52209;DHT22;38507;53.132;6.394;2023-09-08T05:00:13;16.70;99.90
52209;DHT22;38507;53.132;6.394;2023-09-08T05:02:39;16.70;99.90
52209;DHT22;38507;53.132;6.394;2023-09-08T05:05:05;16.60;99.90
52209;DHT22;38507;53.132;6.394;2023-09-08T05:07:30;16.60;99.90
52209;DHT22;38507;53.132;6.394;2023-09-08T05:09:56;16.60;99.90
52209;DHT22;38507;53.132;6.394;2023-09-08T05:12:22;16.60;99.90
52209;DHT22;38507;53.132;6.394;2023-09-08T05:14:47;16.60;99.90
52209;DHT22;38507;53.132;6.394;2023-09-08T05:17:13;16.60;99.90
52209;DHT22;38507;53.132;6.394;2023-09-08T05:19:39;16.60;99.90
52209;DHT22;38507;53.132;6.394;2023-09-08T05:22:05;16.60;99.90
52209;DHT22;38507;53.132;6.394;2023-09-08T05:24:32;16.60;99.90
52209;DHT22;38507;53.132;6.394;2023-09-08T05:26:58;16.70;99.90
52209;DHT22;38507;53.132;6.394;2023-09-08T05:29:23;16.70;99.90
52209;DHT22;38507;53.132;6.394;2023-09-08T05:31:49;16.60;99.90
52209;DHT22;38507;53.132;6.394;2023-09-08T05:34:15;16.70;99.90
52209;DHT22;38507;53.132;6.394;2023-09-08T05:36:41;16.70;99.90
52209;DHT22;38507;53.132;6.394;2023-09-08T05:39:08;16.70;99.90
52209;DHT22;38507;53.132;6.394;2023-09-08T05:41:34;16.70;99.90
52209;DHT22;38507;53.132;6.394;2023-09-08T05:44:00;16.70;99.90
52209;DHT22;38507;53.132;6.394;2023-09-08T05:46:26;16.80;99.90
52209;DHT22;38507;53.132;6.394;2023-09-08T05:48:52;16.80;99.90
52209;DHT22;38507;53.132;6.394;2023-09-08T05:51:17;16.80;99.90
52209;DHT22;38507;53.132;6.394;2023-09-08T05:53:43;16.80;99.90
52209;DHT22;38507;53.132;6.394;2023-09-08T05:56:09;16.90;99.90
52209;DHT22;38507;53.132;6.394;2023-09-08T05:58:35;16.90;99.90
52209;DHT22;38507;53.132;6.394;2023-09-08T06:01:02;16.90;99.90
52209;DHT22;38507;53.132;6.394;2023-09-08T06:03:29;17.00;99.90
52209;DHT22;38507;53.132;6.394;2023-09-08T06:05:55;17.00;99.90
52209;DHT22;38507;53.132;6.394;2023-09-08T06:08:21;17.10;99.90
52209;DHT22;38507;53.132;6.394;2023-09-08T06:10:47;17.10;99.90
52209;DHT22;38507;53.132;6.394;2023-09-08T06:13:12;17.10;99.90
52209;DHT22;38507;53.132;6.394;2023-09-08T06:15:38;17.10;99.90
52209;DHT22;38507;53.132;6.394;2023-09-08T06:18:04;17.20;99.90
52209;DHT22;38507;53.132;6.394;2023-09-08T06:20:29;17.20;99.90
52209;DHT22;38507;53.132;6.394;2023-09-08T06:22:55;17.30;99.90
52209;DHT22;38507;53.132;6.394;2023-09-08T06:25:21;17.30;99.90
52209;DHT22;38507;53.132;6.394;2023-09-08T06:27:46;17.30;99.90
52209;DHT22;38507;53.132;6.394;2023-09-08T06:30:12;17.40;99.90
52209;DHT22;38507;53.132;6.394;2023-09-08T06:32:39;17.40;99.90
52209;DHT22;38507;53.132;6.394;2023-09-08T06:35:05;17.50;99.90
52209;DHT22;38507;53.132;6.394;2023-09-08T06:37:38;17.50;99.90
52209;DHT22;38507;53.132;6.394;2023-09-08T06:40:05;17.60;99.90
52209;DHT22;38507;53.132;6.394;2023-09-08T06:42:31;17.70;99.90
52209;DHT22;38507;53.132;6.394;2023-09-08T06:44:57;17.70;99.90
52209;DHT22;38507;53.132;6.394;2023-09-08T06:47:23;17.80;99.90
52209;DHT22;38507;53.132;6.394;2023-09-08T06:49:48;17.80;99.90
52209;DHT22;38507;53.132;6.394;2023-09-08T06:52:14;17.90;99.90
52209;DHT22;38507;53.132;6.394;2023-09-08T06:54:40;17.90;99.90
52209;DHT22;38507;53.132;6.394;2023-09-08T06:57:05;18.00;99.90
52209;DHT22;38507;53.132;6.394;2023-09-08T06:59:31;18.00;99.90
52209;DHT22;38507;53.132;6.394;2023-09-08T07:01:57;18.20;99.90
52209;DHT22;38507;53.132;6.394;2023-09-08T07:04:22;18.20;99.90
52209;DHT22;38507;53.132;6.394;2023-09-08T07:06:48;18.30;99.90
52209;DHT22;38507;53.132;6.394;2023-09-08T07:09:15;18.30;99.90
52209;DHT22;38507;53.132;6.394;2023-09-08T07:11:41;18.40;99.90
52209;DHT22;38507;53.132;6.394;2023-09-08T07:14:07;18.50;99.90
52209;DHT22;38507;53.132;6.394;2023-09-08T07:16:32;18.60;99.90
52209;DHT22;38507;53.132;6.394;2023-09-08T07:18:58;18.70;99.90
52209;DHT22;38507;53.132;6.394;2023-09-08T07:21:26;18.70;99.90
52209;DHT22;38507;53.132;6.394;2023-09-08T07:23:52;18.80;99.90
52209;DHT22;38507;53.132;6.394;2023-09-08T07:26:19;19.00;99.90
52209;DHT22;38507;53.132;6.394;2023-09-08T07:28:45;19.10;99.90
52209;DHT22;38507;53.132;6.394;2023-09-08T07:31:11;19.20;99.90
52209;DHT22;38507;53.132;6.394;2023-09-08T07:33:37;19.30;99.90
52209;DHT22;38507;53.132;6.394;2023-09-08T07:36:07;19.40;99.90
52209;DHT22;38507;53.132;6.394;2023-09-08T07:38:33;19.50;99.90
52209;DHT22;38507;53.132;6.394;2023-09-08T07:41:00;19.60;99.90
52209;DHT22;38507;53.132;6.394;2023-09-08T07:43:27;19.70;99.90
52209;DHT22;38507;53.132;6.394;2023-09-08T07:45:52;19.80;99.90
52209;DHT22;38507;53.132;6.394;2023-09-08T07:48:18;20.00;99.90
52209;DHT22;38507;53.132;6.394;2023-09-08T07:50:44;20.10;99.90
52209;DHT22;38507;53.132;6.394;2023-09-08T07:53:09;20.20;99.90
52209;DHT22;38507;53.132;6.394;2023-09-08T07:55:35;20.40;99.90
52209;DHT22;38507;53.132;6.394;2023-09-08T07:58:02;20.50;99.90
52209;DHT22;38507;53.132;6.394;2023-09-08T08:00:29;20.60;99.90
52209;DHT22;38507;53.132;6.394;2023-09-08T08:02:56;20.80;99.90
52209;DHT22;38507;53.132;6.394;2023-09-08T08:05:22;20.90;99.90
52209;DHT22;38507;53.132;6.394;2023-09-08T08:07:48;21.10;99.90
52209;DHT22;38507;53.132;6.394;2023-09-08T08:10:14;21.30;99.90
52209;DHT22;38507;53.132;6.394;2023-09-08T08:12:41;21.40;99.90
52209;DHT22;38507;53.132;6.394;2023-09-08T08:15:07;21.60;99.90
52209;DHT22;38507;53.132;6.394;2023-09-08T08:17:35;21.90;99.90
52209;DHT22;38507;53.132;6.394;2023-09-08T08:20:02;22.10;99.90
52209;DHT22;38507;53.132;6.394;2023-09-08T08:22:38;22.40;99.90
52209;DHT22;38507;53.132;6.394;2023-09-08T08:25:04;22.60;99.90
52209;DHT22;38507;53.132;6.394;2023-09-08T08:27:30;22.90;99.90
52209;DHT22;38507;53.132;6.394;2023-09-08T08:29:57;23.30;99.90
52209;DHT22;38507;53.132;6.394;2023-09-08T08:32:25;23.50;99.90
52209;DHT22;38507;53.132;6.394;2023-09-08T08:34:51;23.70;99.90
52209;DHT22;38507;53.132;6.394;2023-09-08T08:37:17;24.00;99.90
52209;DHT22;38507;53.132;6.394;2023-09-08T08:39:43;24.30;99.90
52209;DHT22;38507;53.132;6.394;2023-09-08T08:42:09;24.50;99.90
52209;DHT22;38507;53.132;6.394;2023-09-08T08:44:38;24.70;99.90
52209;DHT22;38507;53.132;6.394;2023-09-08T08:47:06;24.90;99.90
52209;DHT22;38507;53.132;6.394;2023-09-08T08:49:33;25.10;99.90
52209;DHT22;38507;53.132;6.394;2023-09-08T08:51:59;25.30;99.90
52209;DHT22;38507;53.132;6.394;2023-09-08T08:54:26;25.50;99.90
52209;DHT22;38507;53.132;6.394;2023-09-08T08:56:51;25.70;99.90
52209;DHT22;38507;53.132;6.394;2023-09-08T08:59:18;25.90;99.90
52209;DHT22;38507;53.132;6.394;2023-09-08T09:01:44;26.00;99.90
52209;DHT22;38507;53.132;6.394;2023-09-08T09:04:10;26.20;99.90
52209;DHT22;38507;53.132;6.394;2023-09-08T09:06:36;26.30;99.90
52209;DHT22;38507;53.132;6.394;2023-09-08T09:09:02;26.50;99.90
52209;DHT22;38507;53.132;6.394;2023-09-08T09:11:31;26.70;99.90
52209;DHT22;38507;53.132;6.394;2023-09-08T09:13:58;26.90;99.90
52209;DHT22;38507;53.132;6.394;2023-09-08T09:16:24;27.10;99.90
52209;DHT22;38507;53.132;6.394;2023-09-08T09:18:58;27.20;99.90
52209;DHT22;38507;53.132;6.394;2023-09-08T09:21:47;27.20;99.90
52209;DHT22;38507;53.132;6.394;2023-09-08T09:26:55;27.50;99.90
52209;DHT22;38507;53.132;6.394;2023-09-08T09:29:21;27.60;99.90
52209;DHT22;38507;53.132;6.394;2023-09-08T09:31:55;27.70;99.90
52209;DHT22;38507;53.132;6.394;2023-09-08T09:34:21;27.90;99.90
52209;DHT22;38507;53.132;6.394;2023-09-08T09:36:48;28.10;99.90
52209;DHT22;38507;53.132;6.394;2023-09-08T09:39:21;28.30;99.90
52209;DHT22;38507;53.132;6.394;2023-09-08T09:41:48;28.40;99.90
52209;DHT22;38507;53.132;6.394;2023-09-08T09:44:14;28.60;99.90
52209;DHT22;38507;53.132;6.394;2023-09-08T09:46:44;28.60;99.90
52209;DHT22;38507;53.132;6.394;2023-09-08T09:49:11;28.80;99.90
52209;DHT22;38507;53.132;6.394;2023-09-08T09:51:46;29.00;99.90
52209;DHT22;38507;53.132;6.394;2023-09-08T09:54:13;29.20;99.90
52209;DHT22;38507;53.132;6.394;2023-09-08T09:56:40;29.40;99.90
52209;DHT22;38507;53.132;6.394;2023-09-08T09:59:10;29.50;99.90
52209;DHT22;38507;53.132;6.394;2023-09-08T10:01:37;29.50;99.90
52209;DHT22;38507;53.132;6.394;2023-09-08T10:04:04;29.60;99.90
52209;DHT22;38507;53.132;6.394;2023-09-08T10:06:36;29.60;99.90
52209;DHT22;38507;53.132;6.394;2023-09-08T10:09:04;29.80;99.90
52209;DHT22;38507;53.132;6.394;2023-09-08T10:11:50;29.80;99.90
52209;DHT22;38507;53.132;6.394;2023-09-08T10:14:18;29.90;99.90
52209;DHT22;38507;53.132;6.394;2023-09-08T10:16:45;30.00;99.90
52209;DHT22;38507;53.132;6.394;2023-09-08T10:19:15;30.20;99.90
52209;DHT22;38507;53.132;6.394;2023-09-08T10:21:46;30.30;99.90
52209;DHT22;38507;53.132;6.394;2023-09-08T10:24:27;30.50;99.80
52209;DHT22;38507;53.132;6.394;2023-09-08T10:27:09;30.70;99.60
52209;DHT22;38507;53.132;6.394;2023-09-08T10:29:36;30.80;98.70
52209;DHT22;38507;53.132;6.394;2023-09-08T10:32:02;30.90;99.50
52209;DHT22;38507;53.132;6.394;2023-09-08T10:34:29;31.00;99.00
52209;DHT22;38507;53.132;6.394;2023-09-08T10:36:56;30.90;97.90
52209;DHT22;38507;53.132;6.394;2023-09-08T10:39:32;31.00;99.00
52209;DHT22;38507;53.132;6.394;2023-09-08T10:47:32;31.20;97.80
52209;DHT22;38507;53.132;6.394;2023-09-08T10:49:59;31.30;97.80
52209;DHT22;38507;53.132;6.394;2023-09-08T10:52:25;31.30;98.30
52209;DHT22;38507;53.132;6.394;2023-09-08T10:54:53;31.30;98.00
52209;DHT22;38507;53.132;6.394;2023-09-08T10:57:23;31.30;97.90
52209;DHT22;38507;53.132;6.394;2023-09-08T10:59:53;31.30;97.60
52209;DHT22;38507;53.132;6.394;2023-09-08T11:02:40;31.50;97.70
52209;DHT22;38507;53.132;6.394;2023-09-08T11:05:12;31.60;96.80
52209;DHT22;38507;53.132;6.394;2023-09-08T11:07:44;31.70;97.50
52209;DHT22;38507;53.132;6.394;2023-09-08T11:10:12;31.70;97.00
52209;DHT22;38507;53.132;6.394;2023-09-08T11:12:38;31.70;97.20
52209;DHT22;38507;53.132;6.394;2023-09-08T11:15:05;31.80;97.10
52209;DHT22;38507;53.132;6.394;2023-09-08T11:17:34;31.90;97.10
52209;DHT22;38507;53.132;6.394;2023-09-08T11:20:00;32.00;97.10
52209;DHT22;38507;53.132;6.394;2023-09-08T11:22:26;32.10;96.90
52209;DHT22;38507;53.132;6.394;2023-09-08T11:24:53;32.30;96.80
52209;DHT22;38507;53.132;6.394;2023-09-08T11:27:19;32.30;96.90
52209;DHT22;38507;53.132;6.394;2023-09-08T11:29:46;32.30;96.80
52209;DHT22;38507;53.132;6.394;2023-09-08T11:32:12;32.40;96.90
52209;DHT22;38507;53.132;6.394;2023-09-08T11:34:38;32.50;96.50
52209;DHT22;38507;53.132;6.394;2023-09-08T11:37:11;32.50;96.40
52209;DHT22;38507;53.132;6.394;2023-09-08T11:39:42;32.50;96.40
52209;DHT22;38507;53.132;6.394;2023-09-08T11:42:09;32.70;96.20
52209;DHT22;38507;53.132;6.394;2023-09-08T11:44:36;32.70;96.30
52209;DHT22;38507;53.132;6.394;2023-09-08T11:47:03;32.80;95.60
52209;DHT22;38507;53.132;6.394;2023-09-08T11:49:40;32.90;96.30
52209;DHT22;38507;53.132;6.394;2023-09-08T11:52:06;33.00;95.20
52209;DHT22;38507;53.132;6.394;2023-09-08T11:54:33;33.10;95.60
52209;DHT22;38507;53.132;6.394;2023-09-08T11:57:00;33.10;95.20
52209;DHT22;38507;53.132;6.394;2023-09-08T11:59:28;33.20;95.50
52209;DHT22;38507;53.132;6.394;2023-09-08T12:01:54;33.40;95.10
52209;DHT22;38507;53.132;6.394;2023-09-08T12:04:20;33.40;94.60
52209;DHT22;38507;53.132;6.394;2023-09-08T12:06:49;33.50;94.90
52209;DHT22;38507;53.132;6.394;2023-09-08T12:09:16;33.60;94.50
52209;DHT22;38507;53.132;6.394;2023-09-08T12:11:42;33.60;93.60
52209;DHT22;38507;53.132;6.394;2023-09-08T12:14:13;33.60;94.10
52209;DHT22;38507;53.132;6.394;2023-09-08T12:16:40;33.60;93.70
52209;DHT22;38507;53.132;6.394;2023-09-08T12:19:08;33.70;93.70
52209;DHT22;38507;53.132;6.394;2023-09-08T12:21:59;33.60;93.20
52209;DHT22;38507;53.132;6.394;2023-09-08T12:27:19;33.70;92.00
52209;DHT22;38507;53.132;6.394;2023-09-08T12:29:59;33.70;93.20
52209;DHT22;38507;53.132;6.394;2023-09-08T12:32:31;33.70;91.80
52209;DHT22;38507;53.132;6.394;2023-09-08T12:34:59;33.70;92.20
52209;DHT22;38507;53.132;6.394;2023-09-08T12:37:26;33.80;92.10
52209;DHT22;38507;53.132;6.394;2023-09-08T12:39:56;33.80;92.10
52209;DHT22;38507;53.132;6.394;2023-09-08T12:42:22;33.90;92.10
52209;DHT22;38507;53.132;6.394;2023-09-08T12:44:51;34.00;91.70
52209;DHT22;38507;53.132;6.394;2023-09-08T12:47:17;33.90;91.40
52209;DHT22;38507;53.132;6.394;2023-09-08T12:49:43;33.90;91.20
52209;DHT22;38507;53.132;6.394;2023-09-08T12:52:08;34.00;91.30
52209;DHT22;38507;53.132;6.394;2023-09-08T12:54:35;34.00;91.20
52209;DHT22;38507;53.132;6.394;2023-09-08T12:57:01;34.10;91.10
52209;DHT22;38507;53.132;6.394;2023-09-08T12:59:27;34.10;90.50
52209;DHT22;38507;53.132;6.394;2023-09-08T13:01:52;34.10;90.40
52209;DHT22;38507;53.132;6.394;2023-09-08T13:04:18;34.20;90.80
52209;DHT22;38507;53.132;6.394;2023-09-08T13:06:44;34.30;90.40
52209;DHT22;38507;53.132;6.394;2023-09-08T13:09:11;34.40;90.40
52209;DHT22;38507;53.132;6.394;2023-09-08T13:11:36;34.40;90.10
52209;DHT22;38507;53.132;6.394;2023-09-08T13:14:02;34.20;89.10
52209;DHT22;38507;53.132;6.394;2023-09-08T13:16:28;34.10;88.80
52209;DHT22;38507;53.132;6.394;2023-09-08T13:18:54;34.10;88.20
52209;DHT22;38507;53.132;6.394;2023-09-08T13:21:20;34.10;88.40
52209;DHT22;38507;53.132;6.394;2023-09-08T13:23:46;34.10;87.00
52209;DHT22;38507;53.132;6.394;2023-09-08T13:26:12;34.10;87.60
52209;DHT22;38507;53.132;6.394;2023-09-08T13:28:37;34.10;88.20
52209;DHT22;38507;53.132;6.394;2023-09-08T13:31:03;34.10;88.70
52209;DHT22;38507;53.132;6.394;2023-09-08T13:33:28;34.10;88.30
52209;DHT22;38507;53.132;6.394;2023-09-08T13:35:54;34.10;87.90
52209;DHT22;38507;53.132;6.394;2023-09-08T13:38:20;34.10;87.60
52209;DHT22;38507;53.132;6.394;2023-09-08T13:40:45;34.10;86.60
52209;DHT22;38507;53.132;6.394;2023-09-08T13:43:11;34.00;87.30
52209;DHT22;38507;53.132;6.394;2023-09-08T13:45:37;34.10;87.60
52209;DHT22;38507;53.132;6.394;2023-09-08T13:48:03;34.10;87.20
52209;DHT22;38507;53.132;6.394;2023-09-08T13:50:31;34.10;87.10
52209;DHT22;38507;53.132;6.394;2023-09-08T13:52:57;34.20;86.50
52209;DHT22;38507;53.132;6.394;2023-09-08T13:55:23;34.20;85.60
52209;DHT22;38507;53.132;6.394;2023-09-08T13:57:52;34.20;86.70
52209;DHT22;38507;53.132;6.394;2023-09-08T14:00:18;34.30;86.80
52209;DHT22;38507;53.132;6.394;2023-09-08T14:02:44;34.10;86.20
52209;DHT22;38507;53.132;6.394;2023-09-08T14:05:10;34.10;86.60
52209;DHT22;38507;53.132;6.394;2023-09-08T14:07:35;34.00;86.80
52209;DHT22;38507;53.132;6.394;2023-09-08T14:10:02;34.10;86.60
52209;DHT22;38507;53.132;6.394;2023-09-08T14:12:33;34.20;86.60
52209;DHT22;38507;53.132;6.394;2023-09-08T14:14:58;34.10;86.90
52209;DHT22;38507;53.132;6.394;2023-09-08T14:17:24;34.10;87.10
52209;DHT22;38507;53.132;6.394;2023-09-08T14:19:49;34.20;87.70
52209;DHT22;38507;53.132;6.394;2023-09-08T14:22:15;34.30;88.00
52209;DHT22;38507;53.132;6.394;2023-09-08T14:24:41;34.30;88.20
52209;DHT22;38507;53.132;6.394;2023-09-08T14:27:06;34.30;88.20
52209;DHT22;38507;53.132;6.394;2023-09-08T14:29:34;34.40;88.10
52209;DHT22;38507;53.132;6.394;2023-09-08T14:31:59;34.30;87.30
52209;DHT22;38507;53.132;6.394;2023-09-08T14:34:25;34.30;88.10
52209;DHT22;38507;53.132;6.394;2023-09-08T14:36:50;34.30;87.60
52209;DHT22;38507;53.132;6.394;2023-09-08T14:39:16;34.30;87.50
52209;DHT22;38507;53.132;6.394;2023-09-08T14:41:44;34.40;87.90
52209;DHT22;38507;53.132;6.394;2023-09-08T14:44:10;34.40;87.80
52209;DHT22;38507;53.132;6.394;2023-09-08T14:46:36;34.40;87.80
52209;DHT22;38507;53.132;6.394;2023-09-08T14:49:01;34.50;87.70
52209;DHT22;38507;53.132;6.394;2023-09-08T14:51:28;34.50;88.00
52209;DHT22;38507;53.132;6.394;2023-09-08T14:53:53;34.60;87.70
52209;DHT22;38507;53.132;6.394;2023-09-08T14:56:19;34.50;87.30
52209;DHT22;38507;53.132;6.394;2023-09-08T14:58:45;34.40;87.20
52209;DHT22;38507;53.132;6.394;2023-09-08T15:01:10;34.40;87.20
52209;DHT22;38507;53.132;6.394;2023-09-08T15:03:40;34.50;87.40
52209;DHT22;38507;53.132;6.394;2023-09-08T15:06:05;34.40;87.60
52209;DHT22;38507;53.132;6.394;2023-09-08T15:08:32;34.40;88.10
52209;DHT22;38507;53.132;6.394;2023-09-08T15:10:58;34.30;87.40
52209;DHT22;38507;53.132;6.394;2023-09-08T15:13:24;34.20;87.90
52209;DHT22;38507;53.132;6.394;2023-09-08T15:15:50;34.40;88.50
52209;DHT22;38507;53.132;6.394;2023-09-08T15:18:15;34.40;88.60
52209;DHT22;38507;53.132;6.394;2023-09-08T15:20:50;34.40;88.20
52209;DHT22;38507;53.132;6.394;2023-09-08T15:23:16;34.40;88.70
52209;DHT22;38507;53.132;6.394;2023-09-08T15:25:42;34.30;88.90
52209;DHT22;38507;53.132;6.394;2023-09-08T15:28:08;34.40;88.50
52209;DHT22;38507;53.132;6.394;2023-09-08T15:30:33;34.30;88.50
52209;DHT22;38507;53.132;6.394;2023-09-08T15:33:03;34.30;88.80
52209;DHT22;38507;53.132;6.394;2023-09-08T15:35:31;34.30;88.90
52209;DHT22;38507;53.132;6.394;2023-09-08T15:37:57;34.30;89.40